Time;durP1;ratioP1;P1;durP2;ratioP2;P2;SDS_P1;SDS_P2;PMS_P1;PMS_P2;Temp;Humidity;BMP_temperature;BMP_pressure;BME280_temperature;BME280_humidity;BME280_pressure;Samples;Min_cycle;Max_cycle;Signal;HPM_P1;HPM_P2
2021/11/05 00:00:34;;;;;;;1.07;1.00;;;;;;;5.68;70.58;99354.53;5085198;28;20224;-80
2021/11/05 00:03:01;;;;;;;1.03;0.93;;;;;;;5.42;71.03;99333.91;5051267;28;20648;-79
2021/11/05 00:05:30;;;;;;;1.07;1.07;;;;;;;5.42;71.88;99339.22;5067206;28;20217;-79
2021/11/05 00:08:08;;;;;;;1.20;1.10;;;;;;;5.35;71.92;99340.19;5086669;23;20224;-78
2021/11/05 00:10:39;;;;;;;1.20;1.10;;;;;;;5.22;72.44;99336.44;5054643;23;20225;-78
2021/11/05 00:13:12;;;;;;;1.53;1.27;;;;;;;5.20;73.48;99350.91;5065935;28;20589;-78
2021/11/05 00:15:39;;;;;;;2.07;1.87;;;;;;;5.06;72.72;99338.53;5068941;28;20165;-78
2021/11/05 00:18:07;;;;;;;6.33;5.30;;;;;;;5.02;73.15;99335.44;5086733;23;20279;-78
2021/11/05 00:20:34;;;;;;;4.77;3.97;;;;;;;4.97;73.18;99344.97;5111549;28;20267;-80
2021/11/05 00:23:04;;;;;;;3.37;2.60;;;;;;;4.92;73.88;99339.41;5092465;28;20268;-79
2021/11/05 00:25:31;;;;;;;4.13;3.50;;;;;;;4.94;74.22;99351.50;5088717;28;20212;-79
2021/11/05 00:27:58;;;;;;;3.90;3.10;;;;;;;4.75;74.26;99338.88;5106803;28;20275;-79
2021/11/05 00:30:28;;;;;;;4.43;3.10;;;;;;;4.68;74.57;99340.63;5104913;28;20235;-79
2021/11/05 00:32:55;;;;;;;3.17;2.70;;;;;;;4.63;75.57;99335.03;5086384;28;20291;-79
2021/11/05 00:35:21;;;;;;;4.17;3.20;;;;;;;4.64;75.88;99361.41;5106239;28;20235;-79
2021/11/05 00:37:48;;;;;;;4.27;3.63;;;;;;;4.54;75.68;99347.63;5089745;28;20277;-79
2021/11/05 00:40:17;;;;;;;4.80;3.70;;;;;;;4.54;75.69;99362.72;5087783;28;20220;-78
2021/11/05 00:42:44;;;;;;;3.67;2.97;;;;;;;4.50;75.69;99375.53;5089411;28;20211;-78
2021/11/05 00:45:12;;;;;;;3.47;3.07;;;;;;;4.41;76.43;99372.16;5096968;22;20220;-78
2021/11/05 00:47:39;;;;;;;3.20;2.90;;;;;;;4.32;77.34;99370.63;5083290;28;20323;-78
2021/11/05 00:50:07;;;;;;;3.40;2.90;;;;;;;4.27;77.42;99366.88;5083584;28;20247;-79
2021/11/05 00:52:33;;;;;;;5.73;3.00;;;;;;;4.14;78.05;99359.59;5067831;28;20221;-79
2021/11/05 00:55:03;;;;;;;3.00;2.27;;;;;;;4.18;77.66;99368.81;5083324;28;20232;-79
2021/11/05 00:57:30;;;;;;;2.73;2.23;;;;;;;4.10;78.18;99374.25;5093515;22;20300;-78
2021/11/05 00:59:56;;;;;;;2.53;1.97;;;;;;;4.03;77.95;99367.19;5067024;28;20311;-78
2021/11/05 01:02:23;;;;;;;2.40;1.80;;;;;;;4.00;78.41;99365.75;5082952;28;20224;-79
2021/11/05 01:04:50;;;;;;;1.57;1.47;;;;;;;3.99;78.38;99364.91;5083893;28;20219;-79
2021/11/05 01:07:17;;;;;;;1.60;1.50;;;;;;;3.94;78.27;99361.16;5084120;28;20232;-78
2021/11/05 01:09:43;;;;;;;1.73;1.63;;;;;;;3.88;78.53;99375.97;5049240;28;20270;-79
2021/11/05 01:12:12;;;;;;;1.63;1.53;;;;;;;3.86;78.99;99374.50;5082360;28;20258;-79
2021/11/05 01:14:39;;;;;;;2.43;1.80;;;;;;;3.76;78.82;99374.78;5083502;28;20589;-80
2021/11/05 01:17:09;;;;;;;1.50;1.40;;;;;;;3.72;79.07;99378.81;5083444;28;20513;-79
2021/11/05 01:19:35;;;;;;;2.90;1.50;;;;;;;3.77;79.22;99381.72;5050000;28;20224;-80
2021/11/05 01:22:02;;;;;;;1.80;1.60;;;;;;;3.62;79.45;99367.66;5083662;28;20308;-79
2021/11/05 01:24:37;;;;;;;2.30;1.80;;;;;;;3.67;79.58;99385.66;5085074;28;20228;-79
2021/11/05 01:27:04;;;;;;;2.03;1.77;;;;;;;3.65;79.45;99385.81;5074320;22;20231;-79
2021/11/05 01:29:31;;;;;;;1.73;1.63;;;;;;;3.59;79.72;99383.09;5046044;28;20220;-80
2021/11/05 01:31:58;;;;;;;1.97;1.77;;;;;;;3.54;79.90;99386.28;5061715;28;20225;-79
2021/11/05 01:34:25;;;;;;;2.33;2.00;;;;;;;3.51;79.89;99373.38;5082474;23;20224;-80
2021/11/05 01:36:57;;;;;;;2.20;2.00;;;;;;;3.42;80.20;99370.00;5088187;28;20643;-78
2021/11/05 01:39:25;;;;;;;2.50;2.10;;;;;;;3.43;79.90;99366.34;5086276;28;20229;-79
2021/11/05 01:41:53;;;;;;;2.10;1.90;;;;;;;3.36;79.76;99365.41;5054576;28;20225;-79
2021/11/05 01:44:25;;;;;;;2.20;1.80;;;;;;;3.35;80.34;99373.53;5069598;28;20219;-79
2021/11/05 01:46:54;;;;;;;1.60;1.50;;;;;;;3.40;80.13;99374.66;5086595;28;20363;-79
2021/11/05 01:49:36;;;;;;;1.93;1.73;;;;;;;3.36;80.25;99378.63;5078050;23;20253;-79
2021/11/05 01:52:07;;;;;;;3.47;1.50;;;;;;;3.34;80.36;99379.84;5071197;23;20277;-79
2021/11/05 01:54:34;;;;;;;1.70;1.60;;;;;;;3.31;80.63;99386.28;5061970;23;20279;-78
2021/11/05 01:57:01;;;;;;;2.10;1.90;;;;;;;3.33;80.31;99394.91;5028004;28;20313;-79
2021/11/05 01:59:35;;;;;;;1.90;1.80;;;;;;;3.39;80.16;99388.06;5044726;28;20232;-78
2021/11/05 02:02:05;;;;;;;2.00;1.70;;;;;;;3.37;79.95;99401.47;5075516;23;20233;-80
2021/11/05 02:04:36;;;;;;;2.83;1.80;;;;;;;3.29;80.08;99398.09;5065112;28;20223;-80
2021/11/05 02:07:05;;;;;;;1.80;1.70;;;;;;;3.32;79.59;99397.72;5081862;28;20254;-79
2021/11/05 02:09:34;;;;;;;1.83;1.63;;;;;;;3.33;79.60;99408.13;5031820;28;20222;-80
2021/11/05 02:12:01;;;;;;;2.43;1.90;;;;;;;3.35;80.70;99416.75;5047438;28;20229;-79
2021/11/05 02:14:30;;;;;;;4.37;2.07;;;;;;;3.29;80.32;99411.31;5051667;28;20203;-79
2021/11/05 02:16:59;;;;;;;3.00;1.80;;;;;;;3.36;80.57;99426.31;5086465;28;20246;-79
2021/11/05 02:19:30;;;;;;;1.97;1.40;;;;;;;3.33;80.76;99425.84;5085600;28;20212;-78
2021/11/05 02:21:58;;;;;;;2.73;1.77;;;;;;;3.23;80.34;99414.66;5088436;28;20181;-79
2021/11/05 02:24:28;;;;;;;1.87;1.50;;;;;;;3.27;80.88;99427.38;5069579;28;20312;-79
2021/11/05 02:26:56;;;;;;;2.10;1.50;;;;;;;3.27;80.88;99434.50;5068705;28;20289;-79
2021/11/05 02:29:25;;;;;;;1.80;1.70;;;;;;;3.24;80.69;99433.03;5087430;28;20323;-78
2021/11/05 02:31:56;;;;;;;1.60;1.50;;;;;;;3.27;80.87;99447.72;5038683;28;20513;-79
2021/11/05 02:34:23;;;;;;;1.80;1.70;;;;;;;3.18;80.81;99449.63;5035414;28;20296;-78
2021/11/05 02:36:51;;;;;;;1.77;1.37;;;;;;;3.22;80.89;99445.63;5053057;28;20573;-78
2021/11/05 02:39:18;;;;;;;2.03;1.83;;;;;;;3.12;80.62;99429.16;5084877;28;20315;-79
2021/11/05 02:41:47;;;;;;;1.93;1.77;;;;;;;3.22;80.66;99437.66;5070441;28;20235;-79
2021/11/05 02:44:13;;;;;;;2.00;1.80;;;;;;;3.26;80.62;99439.00;5083543;23;20649;-78
2021/11/05 02:46:41;;;;;;;2.30;2.10;;;;;;;3.17;80.24;99447.16;5047031;28;20251;-78
2021/11/05 02:49:09;;;;;;;2.20;2.00;;;;;;;3.15;80.17;99436.75;5048134;28;20239;-78
2021/11/05 02:51:40;;;;;;;2.37;1.90;;;;;;;3.21;80.35;99459.88;5064318;28;20233;-78
2021/11/05 02:54:07;;;;;;;2.30;2.10;;;;;;;3.19;80.34;99461.88;5067705;28;20229;-79
2021/11/05 02:56:34;;;;;;;1.90;1.80;;;;;;;3.18;80.09;99473.44;5046658;28;20230;-79
2021/11/05 02:59:04;;;;;;;2.90;1.97;;;;;;;3.19;80.14;99467.16;5064594;28;20225;-79
2021/11/05 03:01:35;;;;;;;2.47;2.00;;;;;;;3.21;80.07;99467.00;5064818;28;20648;-78
2021/11/05 03:04:05;;;;;;;3.57;2.10;;;;;;;3.21;80.15;99467.00;5087722;23;20235;-79
2021/11/05 03:06:40;;;;;;;2.20;2.00;;;;;;;3.49;79.50;99471.56;5074532;28;20478;-79
2021/11/05 03:09:13;;;;;;;2.77;2.00;;;;;;;3.62;79.08;99464.84;5087498;28;20224;-79
2021/11/05 03:11:42;;;;;;;2.37;2.17;;;;;;;3.64;79.07;99466.28;5076836;22;20310;-79
2021/11/05 03:14:09;;;;;;;2.20;1.90;;;;;;;3.57;79.03;99457.44;5089927;28;20300;-79
2021/11/05 03:16:38;;;;;;;2.90;1.90;;;;;;;3.63;79.58;99477.09;5086566;28;20680;-80
2021/11/05 03:19:05;;;;;;;1.97;1.80;;;;;;;3.54;79.69;99463.94;5071442;28;20224;-78
2021/11/05 03:21:35;;;;;;;2.33;1.90;;;;;;;3.64;79.69;99476.09;5078124;23;20234;-79
2021/11/05 03:24:02;;;;;;;2.73;2.20;;;;;;;3.61;79.59;99473.78;5043756;28;20236;-79
2021/11/05 03:26:30;;;;;;;2.07;1.80;;;;;;;3.58;79.94;99472.34;5024122;28;20221;-79
2021/11/05 03:28:59;;;;;;;2.10;1.90;;;;;;;3.36;80.33;99484.56;5026201;28;20211;-79
2021/11/05 03:31:27;;;;;;;2.60;1.70;;;;;;;3.25;80.82;99476.22;5059643;28;20333;-78
2021/11/05 03:33:53;;;;;;;3.13;1.90;;;;;;;3.26;81.27;99478.72;5027321;28;20317;-78
2021/11/05 03:36:22;;;;;;;1.63;1.53;;;;;;;3.38;81.38;99487.06;5047790;22;20229;-79
2021/11/05 03:38:49;;;;;;;2.30;1.70;;;;;;;3.26;81.51;99489.31;5024790;28;20535;-78
2021/11/05 03:41:17;;;;;;;2.40;1.97;;;;;;;3.23;81.16;99492.28;5026894;28;20261;-79
2021/11/05 03:43:44;;;;;;;3.50;2.20;;;;;;;3.17;81.51;99478.94;5040275;22;20217;-79
2021/11/05 03:46:12;;;;;;;2.03;1.83;;;;;;;3.19;81.52;99484.88;5067263;28;20258;-78
2021/11/05 03:48:39;;;;;;;2.90;1.77;;;;;;;3.19;81.64;99483.03;5086351;28;20230;-79
2021/11/05 03:51:07;;;;;;;2.40;1.80;;;;;;;3.17;81.62;99490.34;5101271;28;20324;-79
2021/11/05 03:53:35;;;;;;;3.40;1.90;;;;;;;3.09;81.78;99474.50;5052660;28;20238;-78
2021/11/05 03:56:03;;;;;;;2.77;1.90;;;;;;;3.20;82.29;99486.53;5052844;28;20211;-78
2021/11/05 03:58:30;;;;;;;2.33;1.90;;;;;;;3.19;81.69;99492.81;5049290;22;20225;-79
2021/11/05 04:00:57;;;;;;;2.03;1.60;;;;;;;3.17;81.66;99497.47;5087641;28;20220;-79
2021/11/05 04:03:24;;;;;;;2.80;1.73;;;;;;;3.16;82.15;99498.47;5086047;23;20615;-78
2021/11/05 04:05:51;;;;;;;1.80;1.70;;;;;;;3.10;82.24;99490.22;5106970;28;20224;-78
2021/11/05 04:08:18;;;;;;;2.57;1.93;;;;;;;3.15;82.49;99492.34;5048101;23;20284;-79
2021/11/05 04:10:46;;;;;;;2.30;2.00;;;;;;;3.13;82.21;99489.03;5034021;28;20234;-78
2021/11/05 04:13:15;;;;;;;2.30;1.90;;;;;;;3.09;82.11;99480.63;5069110;28;20616;-78
2021/11/05 04:15:43;;;;;;;1.80;1.70;;;;;;;3.27;82.11;99496.22;5068290;28;20264;-78
2021/11/05 04:18:12;;;;;;;2.00;1.90;;;;;;;3.26;81.95;99493.78;5032466;28;20280;-78
2021/11/05 04:20:42;;;;;;;1.93;1.80;;;;;;;3.40;81.94;99501.78;5049105;28;20221;-78
2021/11/05 04:23:11;;;;;;;2.13;1.60;;;;;;;3.39;81.41;99504.59;5048200;28;20257;-79
2021/11/05 04:25:39;;;;;;;1.83;1.73;;;;;;;3.34;81.46;99489.25;5034308;28;20229;-79
2021/11/05 04:28:07;;;;;;;2.07;1.93;;;;;;;3.57;81.43;99506.94;5048267;28;20233;-79
2021/11/05 04:30:35;;;;;;;2.20;1.73;;;;;;;3.59;81.60;99510.25;5049030;28;20209;-78
2021/11/05 04:33:05;;;;;;;2.83;1.90;;;;;;;3.61;81.52;99522.31;5067700;28;20213;-79
2021/11/05 04:35:32;;;;;;;1.90;1.80;;;;;;;3.70;81.43;99504.50;5065485;28;20255;-80
2021/11/05 04:38:02;;;;;;;2.97;2.00;;;;;;;3.71;80.39;99514.13;5036501;28;20229;-79
2021/11/05 04:40:29;;;;;;;2.23;1.97;;;;;;;3.77;80.44;99530.13;5062645;22;20268;-78
2021/11/05 04:42:59;;;;;;;2.20;2.00;;;;;;;3.79;80.36;99536.06;5054495;28;20221;-79
2021/11/05 04:45:29;;;;;;;1.93;1.83;;;;;;;3.71;80.53;99514.13;5095970;23;20227;-79
2021/11/05 04:48:16;;;;;;;3.00;2.07;;;;;;;3.83;80.31;99533.88;5095987;28;20195;-80
2021/11/05 04:50:42;;;;;;;2.40;2.20;;;;;;;3.90;80.04;99524.22;5111596;28;20219;-79
2021/11/05 04:53:10;;;;;;;2.30;2.10;;;;;;;3.88;80.39;99510.31;5091276;28;20192;-79
2021/11/05 04:55:37;;;;;;;4.50;3.70;;;;;;;4.05;80.16;99511.00;5072008;28;20236;-79
2021/11/05 04:58:05;;;;;;;3.17;2.87;;;;;;;4.05;80.04;99500.38;5091945;28;20204;-78
2021/11/05 05:00:36;;;;;;;2.60;2.40;;;;;;;4.10;80.09;99511.28;5112555;28;20211;-79
2021/11/05 05:03:08;;;;;;;2.93;2.50;;;;;;;4.07;79.99;99504.50;5107492;28;20200;-79
2021/11/05 05:05:37;;;;;;;2.37;2.17;;;;;;;4.17;79.67;99517.50;5086102;28;20271;-79
2021/11/05 05:08:20;;;;;;;2.47;2.27;;;;;;;4.19;79.76;99516.31;5110420;28;20179;-79
2021/11/05 05:10:47;;;;;;;2.60;2.40;;;;;;;4.33;78.93;99512.84;5094751;28;20204;-79
2021/11/05 05:13:17;;;;;;;3.73;2.60;;;;;;;4.40;78.92;99529.69;5117976;22;20220;-79
2021/11/05 05:15:44;;;;;;;2.90;2.50;;;;;;;4.55;78.63;99521.72;5083383;23;20277;-78
2021/11/05 05:18:15;;;;;;;2.33;2.13;;;;;;;4.63;77.93;99526.09;5032699;28;20229;-79
2021/11/05 05:20:46;;;;;;;2.50;2.30;;;;;;;4.76;77.70;99529.75;5047753;28;20612;-79
2021/11/05 05:23:15;;;;;;;2.30;2.10;;;;;;;4.90;77.76;99541.34;5049415;28;20182;-78
2021/11/05 05:25:43;;;;;;;2.13;1.93;;;;;;;4.94;76.79;99541.84;5065989;28;20184;-79
2021/11/05 05:28:11;;;;;;;2.83;2.23;;;;;;;5.02;76.40;99542.53;5050127;28;20293;-78
2021/11/05 05:30:40;;;;;;;2.40;2.20;;;;;;;5.17;76.52;99555.78;5073565;23;20198;-78
2021/11/05 05:33:07;;;;;;;2.33;2.13;;;;;;;5.19;77.06;99565.22;5084241;28;20317;-78
2021/11/05 05:35:33;;;;;;;2.00;1.83;;;;;;;5.24;76.82;99565.47;5067194;28;20554;-79
2021/11/05 05:38:02;;;;;;;2.00;1.77;;;;;;;5.32;75.71;99578.63;5075542;23;20216;-79
2021/11/05 05:40:31;;;;;;;2.93;2.03;;;;;;;5.41;75.96;99589.19;5085142;28;20232;-78
2021/11/05 05:42:58;;;;;;;2.27;2.07;;;;;;;5.41;76.03;99592.66;5086822;28;20213;-79
2021/11/05 05:45:26;;;;;;;2.10;1.90;;;;;;;5.48;76.02;99600.69;5076557;22;20224;-78
2021/11/05 05:47:55;;;;;;;2.10;1.90;;;;;;;5.54;75.34;99610.56;5056567;23;20230;-78
2021/11/05 05:50:22;;;;;;;1.70;1.60;;;;;;;5.63;74.87;99623.56;5068922;28;20291;-78
2021/11/05 05:52:48;;;;;;;2.40;1.83;;;;;;;5.58;75.60;99619.81;5072161;28;20684;-79
2021/11/05 05:55:16;;;;;;;1.83;1.60;;;;;;;5.68;75.05;99630.97;5076366;23;20229;-79
2021/11/05 05:57:44;;;;;;;2.83;1.83;;;;;;;5.66;75.81;99609.88;5082872;23;20303;-78
2021/11/05 06:00:31;;;;;;;3.13;2.17;;;;;;;5.75;74.89;99616.72;5092756;28;20235;-79
2021/11/05 06:02:59;;;;;;;2.13;1.80;;;;;;;5.75;74.57;99607.94;5094425;23;20315;-79
2021/11/05 06:05:28;;;;;;;1.70;1.60;;;;;;;5.78;75.38;99610.22;5081659;22;20228;-78
2021/11/05 06:07:55;;;;;;;2.63;1.83;;;;;;;5.84;75.34;99619.25;5074666;28;20228;-79
2021/11/05 06:10:23;;;;;;;3.37;2.03;;;;;;;5.89;75.38;99619.56;5113858;28;20674;-79
2021/11/05 06:12:54;;;;;;;2.57;2.30;;;;;;;5.97;75.17;99630.88;5114395;28;20211;-80
2021/11/05 06:15:21;;;;;;;3.00;2.70;;;;;;;5.97;74.80;99630.09;5113425;28;20242;-79
2021/11/05 06:17:48;;;;;;;3.93;2.80;;;;;;;5.97;75.15;99640.72;5114120;28;20237;-79
2021/11/05 06:20:15;;;;;;;6.10;3.20;;;;;;;5.98;75.26;99647.66;5097711;28;20208;-79
2021/11/05 06:22:43;;;;;;;3.50;3.20;;;;;;;6.03;75.24;99642.59;5096884;28;20623;-79
2021/11/05 06:25:18;;;;;;;3.37;2.93;;;;;;;6.12;74.65;99647.59;5123169;22;20231;-79
2021/11/05 06:27:47;;;;;;;4.30;3.83;;;;;;;6.14;74.91;99644.75;5087695;23;20204;-79
2021/11/05 06:30:14;;;;;;;4.10;3.50;;;;;;;6.15;75.05;99649.91;5098847;23;20228;-80
2021/11/05 06:32:41;;;;;;;3.40;3.10;;;;;;;6.10;74.96;99647.00;5087523;28;20196;-79
2021/11/05 06:35:09;;;;;;;4.23;3.43;;;;;;;6.20;74.59;99660.78;5108192;22;20225;-79
2021/11/05 06:37:37;;;;;;;3.67;3.33;;;;;;;6.20;75.25;99660.78;5072643;28;20235;-78
2021/11/05 06:40:11;;;;;;;3.70;3.17;;;;;;;6.24;74.77;99669.22;5063692;23;20305;-79
2021/11/05 06:42:40;;;;;;;4.53;3.63;;;;;;;6.34;74.08;99672.38;5031042;28;20229;-79
2021/11/05 06:45:09;;;;;;;6.93;3.67;;;;;;;6.39;74.90;99664.63;5053714;23;20227;-78
2021/11/05 06:47:36;;;;;;;3.50;3.20;;;;;;;6.41;74.57;99670.59;5168033;23;20225;-80
2021/11/05 06:50:06;;;;;;;4.23;3.20;;;;;;;6.48;74.98;99676.81;5068730;23;20237;-79
2021/11/05 06:52:34;;;;;;;3.90;3.40;;;;;;;6.47;75.08;99667.16;5062986;23;20259;-79
2021/11/05 06:55:05;;;;;;;3.63;3.20;;;;;;;6.55;74.85;99685.66;5071813;28;20229;-79
2021/11/05 06:57:33;;;;;;;3.07;2.77;;;;;;;6.58;74.58;99679.13;5076996;23;20209;-79
2021/11/05 07:00:04;;;;;;;5.17;2.80;;;;;;;6.61;73.50;99681.41;5054391;28;20555;-78
2021/11/05 07:02:40;;;;;;;3.53;2.73;;;;;;;6.70;74.27;99695.41;5076910;23;20225;-79
2021/11/05 07:05:16;;;;;;;2.73;2.47;;;;;;;6.74;74.58;99707.31;5072872;28;20265;-78
2021/11/05 07:07:56;;;;;;;3.97;2.40;;;;;;;6.68;75.00;99700.91;5055778;28;20194;-78
2021/11/05 07:10:32;;;;;;;6.20;2.77;;;;;;;6.81;74.56;99718.84;5070197;28;20296;-78
2021/11/05 07:13:09;;;;;;;10.40;8.67;;;;;;;6.93;73.99;99726.09;5073037;28;20205;-78
2021/11/05 07:16:27;;;;;;;10.07;8.30;;;;;;;6.97;73.62;99727.38;5063089;23;20244;-78
2021/11/05 07:19:18;;;;;;;7.77;4.53;;;;;;;7.14;72.79;99721.75;5110174;28;20195;-80
2021/11/05 07:22:51;;;;;;;6.33;4.53;;;;;;;7.37;72.09;99723.09;5107159;28;20294;-79
2021/11/05 07:25:33;;;;;;;5.93;4.13;;;;;;;7.70;71.30;99739.25;5032526;28;20238;-80
2021/11/05 07:31:10;;;;;;;5.77;3.93;;;;;;;8.12;70.80;99748.06;4995981;28;20222;-80
2021/11/05 07:33:37;;;;;;;7.33;4.20;;;;;;;8.28;70.04;99758.38;4984111;28;20212;-80
2021/11/05 07:36:04;;;;;;;4.20;3.80;;;;;;;8.46;69.75;99753.28;5005793;28;20169;-80
2021/11/05 07:38:31;;;;;;;7.40;4.17;;;;;;;8.64;69.77;99753.53;5031614;23;20309;-80
2021/11/05 07:41:01;;;;;;;8.80;4.53;;;;;;;8.81;69.28;99759.31;5048358;28;20218;-80
2021/11/05 07:43:28;;;;;;;5.20;3.80;;;;;;;8.89;66.51;99753.75;5031441;28;20232;-80
2021/11/05 07:46:05;;;;;;;6.37;4.67;;;;;;;9.00;66.70;99750.47;5031144;28;20281;-79
2021/11/05 07:48:31;;;;;;;7.10;4.73;;;;;;;9.13;66.98;99749.63;5029332;28;20219;-80
2021/11/05 07:50:58;;;;;;;6.67;5.03;;;;;;;9.39;67.25;99759.44;5012697;28;20273;-81
2021/11/05 07:53:34;;;;;;;7.60;6.10;;;;;;;9.53;66.72;99751.19;5047364;23;20286;-80
2021/11/05 07:56:08;;;;;;;14.43;9.43;;;;;;;9.81;65.93;99766.13;5061312;23;20216;-80
2021/11/05 07:58:57;;;;;;;13.53;8.57;;;;;;;10.03;64.24;99775.53;5071703;28;20213;-80
2021/11/05 08:01:28;;;;;;;11.97;8.23;;;;;;;10.23;63.44;99772.78;5070531;28;20551;-79
2021/11/05 08:04:08;;;;;;;11.53;7.70;;;;;;;10.46;63.36;99778.41;5086309;22;20235;-80
2021/11/05 08:06:40;;;;;;;9.43;7.57;;;;;;;10.49;63.18;99773.47;5029034;28;20293;-80
2021/11/05 08:09:10;;;;;;;9.17;5.37;;;;;;;10.67;63.13;99783.47;5043736;28;20226;-80
2021/11/05 08:11:39;;;;;;;5.20;3.80;;;;;;;10.66;64.21;99775.63;5028279;28;20248;-80
2021/11/05 08:14:16;;;;;;;4.80;4.17;;;;;;;10.97;63.62;99789.00;5046660;23;20224;-80
2021/11/05 08:16:46;;;;;;;6.40;3.97;;;;;;;11.08;63.72;99788.28;5068365;28;20225;-81
2021/11/05 08:19:21;;;;;;;4.20;3.20;;;;;;;11.28;61.80;99794.31;5067641;28;20312;-80
2021/11/05 08:21:52;;;;;;;3.40;2.90;;;;;;;11.43;62.13;99799.34;5049721;28;20259;-79
2021/11/05 08:24:23;;;;;;;3.03;2.40;;;;;;;11.47;61.75;99798.69;5050688;28;20226;-80
2021/11/05 08:26:50;;;;;;;2.40;2.20;;;;;;;11.53;60.68;99794.28;5033132;28;20220;-80
2021/11/05 08:29:21;;;;;;;2.10;1.63;;;;;;;11.69;59.41;99812.50;5048862;28;20237;-80
2021/11/05 08:31:51;;;;;;;2.27;1.73;;;;;;;11.83;58.61;99815.88;5064433;28;20276;-80
2021/11/05 08:34:22;;;;;;;1.60;1.50;;;;;;;11.95;57.18;99815.94;5047822;28;20231;-80
2021/11/05 08:36:54;;;;;;;1.80;1.70;;;;;;;12.00;54.22;99795.44;5048267;28;20217;-80
2021/11/05 08:39:24;;;;;;;1.80;1.70;;;;;;;12.06;54.99;99804.47;5047529;28;20193;-80
2021/11/05 08:41:57;;;;;;;2.07;1.53;;;;;;;12.16;53.63;99802.09;5049116;28;20228;-80
2021/11/05 08:44:36;;;;;;;2.03;1.43;;;;;;;12.13;54.83;99797.97;4992053;28;20231;-79
2021/11/05 08:47:12;;;;;;;1.23;1.10;;;;;;;12.29;53.37;99805.44;5018295;28;20256;-79
2021/11/05 08:49:53;;;;;;;1.90;1.20;;;;;;;12.00;53.29;99789.25;5063813;28;20270;-80
2021/11/05 08:52:22;;;;;;;1.20;1.10;;;;;;;12.13;53.45;99797.97;5035579;28;20240;-79
2021/11/05 08:54:58;;;;;;;2.10;0.90;;;;;;;12.22;50.98;99817.31;5062030;28;20276;-80
2021/11/05 08:57:40;;;;;;;1.73;1.10;;;;;;;12.29;51.13;99818.84;5063863;28;20311;-80
2021/11/05 09:00:24;;;;;;;1.00;0.90;;;;;;;12.43;50.86;99811.44;5048667;28;20225;-79
2021/11/05 09:02:53;;;;;;;1.33;0.93;;;;;;;12.46;50.42;99797.53;5026954;28;20283;-79
2021/11/05 09:05:21;;;;;;;1.63;0.80;;;;;;;12.39;47.80;99812.94;5027300;28;20195;-79
2021/11/05 09:07:52;;;;;;;1.23;1.00;;;;;;;12.49;47.80;99820.47;5044907;28;20280;-79
2021/11/05 09:10:23;;;;;;;2.27;1.00;;;;;;;12.44;48.03;99823.00;5034892;28;20237;-79
2021/11/05 09:12:54;;;;;;;1.50;1.00;;;;;;;12.52;48.05;99820.81;5046175;28;20666;-79
2021/11/05 09:15:23;;;;;;;0.70;0.70;;;;;;;12.31;48.09;99837.44;5046090;28;20283;-79
2021/11/05 09:17:54;;;;;;;0.83;0.80;;;;;;;12.28;48.64;99845.94;5047412;28;20656;-79
2021/11/05 09:20:25;;;;;;;1.13;0.80;;;;;;;11.95;49.07;99832.88;5046650;28;20225;-80
2021/11/05 09:22:52;;;;;;;1.13;0.77;;;;;;;11.81;49.23;99842.94;5049511;28;20295;-79
2021/11/05 09:25:20;;;;;;;1.30;0.70;;;;;;;11.72;49.44;99838.06;5023939;28;20234;-79
2021/11/05 09:27:47;;;;;;;1.53;0.80;;;;;;;11.69;49.31;99857.28;5031877;28;20975;-79
2021/11/05 09:30:19;;;;;;;1.10;0.90;;;;;;;11.56;49.89;99860.13;5028250;28;20643;-79
2021/11/05 09:32:48;;;;;;;0.97;0.90;;;;;;;11.40;51.08;99859.63;5028793;28;20636;-80
2021/11/05 09:35:15;;;;;;;0.87;0.70;;;;;;;11.14;49.73;99859.00;5014782;28;20264;-79
2021/11/05 09:37:44;;;;;;;1.10;0.87;;;;;;;11.19;50.72;99872.59;5030146;28;20289;-79
2021/11/05 09:40:15;;;;;;;1.33;1.07;;;;;;;11.27;50.68;99870.47;5028211;28;20540;-79
2021/11/05 09:42:47;;;;;;;2.50;0.80;;;;;;;11.40;50.79;99870.34;5007721;28;20226;-79
2021/11/05 09:45:20;;;;;;;0.93;0.80;;;;;;;11.51;50.72;99860.78;5045693;28;20252;-78
2021/11/05 09:47:51;;;;;;;0.97;0.80;;;;;;;11.51;50.42;99886.78;5063582;28;20225;-80
2021/11/05 09:50:24;;;;;;;0.70;0.70;;;;;;;11.57;50.75;99886.69;5002471;28;20256;-80
2021/11/05 09:52:54;;;;;;;0.93;0.80;;;;;;;11.45;50.15;99891.97;5029000;28;20248;-79
2021/11/05 09:55:22;;;;;;;1.03;0.90;;;;;;;11.48;51.14;99888.03;5062656;28;20263;-79
2021/11/05 09:57:52;;;;;;;1.10;0.97;;;;;;;11.48;50.83;99888.03;5043537;28;20248;-79
2021/11/05 10:00:26;;;;;;;2.60;0.90;;;;;;;11.36;50.54;99876.38;5061144;28;20233;-80
2021/11/05 10:02:54;;;;;;;0.90;0.70;;;;;;;11.39;50.73;99900.88;5027602;28;20225;-79
2021/11/05 10:05:25;;;;;;;4.40;0.80;;;;;;;11.22;50.92;99878.34;5019163;28;20267;-79
2021/11/05 10:07:57;;;;;;;1.83;0.80;;;;;;;11.30;50.42;99888.78;5045307;28;20680;-80
2021/11/05 10:10:29;;;;;;;1.13;0.70;;;;;;;11.28;50.68;99890.88;5010851;28;20230;-79
2021/11/05 10:13:03;;;;;;;1.47;0.70;;;;;;;11.11;50.64;99895.09;5043635;28;20260;-79
2021/11/05 10:15:51;;;;;;;1.73;0.80;;;;;;;11.09;51.02;99889.16;5027661;28;20633;-79
2021/11/05 10:18:32;;;;;;;0.90;0.70;;;;;;;11.03;51.32;99877.44;5027546;28;20314;-79
2021/11/05 10:21:16;;;;;;;0.63;0.63;;;;;;;11.24;50.52;99894.22;5059965;28;20248;-79
2021/11/05 10:23:47;;;;;;;1.30;0.70;;;;;;;11.22;51.00;99885.56;5011701;28;20229;-80
2021/11/05 10:26:22;;;;;;;0.60;0.60;;;;;;;11.38;51.35;99890.41;5041782;28;20237;-79
2021/11/05 10:28:50;;;;;;;1.87;0.80;;;;;;;11.31;50.37;99876.19;5060082;28;20225;-80
2021/11/05 10:31:24;;;;;;;0.97;0.63;;;;;;;11.48;50.18;99880.78;5027507;28;20691;-79
2021/11/05 10:33:54;;;;;;;0.70;0.70;;;;;;;11.65;49.94;99869.53;5045636;28;20209;-79
2021/11/05 10:36:25;;;;;;;0.90;0.80;;;;;;;11.95;48.83;99880.41;5046578;28;20672;-79
2021/11/05 10:39:01;;;;;;;1.13;0.70;;;;;;;12.14;47.00;99874.81;5031197;28;20229;-78
2021/11/05 10:41:31;;;;;;;0.67;0.67;;;;;;;12.25;45.67;99867.88;5066550;28;20296;-79
2021/11/05 10:43:58;;;;;;;0.50;0.50;;;;;;;12.41;45.43;99866.47;5050181;28;20240;-78
2021/11/05 10:46:30;;;;;;;0.80;0.60;;;;;;;12.33;44.71;99856.81;5064753;28;20233;-78
2021/11/05 10:49:06;;;;;;;0.50;0.47;;;;;;;12.50;44.25;99865.94;5062808;23;20286;-78
2021/11/05 10:51:37;;;;;;;0.60;0.60;;;;;;;12.56;44.14;99861.50;5076233;23;20232;-78
2021/11/05 10:54:05;;;;;;;0.50;0.50;;;;;;;12.63;45.38;99859.56;5047790;28;20229;-79
2021/11/05 10:56:32;;;;;;;0.50;0.40;;;;;;;12.69;43.12;99866.72;5074588;23;20229;-78
2021/11/05 10:59:08;;;;;;;0.50;0.50;;;;;;;12.67;43.93;99868.81;5058446;23;20295;-78
2021/11/05 11:01:38;;;;;;;0.77;0.50;;;;;;;12.80;42.97;99866.75;5016066;28;20288;-78
2021/11/05 11:04:11;;;;;;;0.50;0.50;;;;;;;12.79;44.44;99864.28;5050098;28;20270;-78
2021/11/05 11:06:46;;;;;;;0.70;0.70;;;;;;;12.74;43.64;99864.97;5041561;23;20248;-79
2021/11/05 11:09:26;;;;;;;1.40;0.70;;;;;;;12.83;43.57;99860.09;5072783;28;20228;-78
2021/11/05 11:11:55;;;;;;;0.40;0.40;;;;;;;12.67;43.83;99861.56;5091387;28;20177;-79
2021/11/05 11:14:30;;;;;;;1.13;0.60;;;;;;;12.70;43.46;99854.91;5057293;28;20236;-78
2021/11/05 11:17:00;;;;;;;0.53;0.50;;;;;;;12.83;45.48;99854.72;5089448;28;20212;-79
2021/11/05 11:19:36;;;;;;;2.00;0.80;;;;;;;12.74;45.45;99869.53;5069732;28;20228;-78
2021/11/05 11:22:14;;;;;;;0.70;0.63;;;;;;;12.82;44.13;99863.03;5073016;23;20240;-79
2021/11/05 11:24:43;;;;;;;1.47;0.70;;;;;;;12.85;43.99;99858.00;5066909;28;20255;-79
2021/11/05 11:27:15;;;;;;;0.70;0.70;;;;;;;12.82;43.32;99849.59;5051971;28;20308;-79
2021/11/05 11:29:54;;;;;;;0.60;0.60;;;;;;;12.83;45.43;99856.59;5068216;28;20229;-79
2021/11/05 11:32:21;;;;;;;0.70;0.67;;;;;;;12.99;45.09;99848.69;5066978;28;20232;-78
2021/11/05 11:34:50;;;;;;;0.83;0.70;;;;;;;12.89;45.40;99856.50;5067514;28;20229;-77
2021/11/05 11:37:17;;;;;;;1.50;0.70;;;;;;;12.96;44.49;99845.66;5035172;28;20700;-78
2021/11/05 11:39:43;;;;;;;0.67;0.67;;;;;;;13.02;45.12;99855.47;5049889;28;20573;-78
2021/11/05 11:42:11;;;;;;;0.93;0.70;;;;;;;13.16;45.21;99867.69;5068196;28;20230;-78
2021/11/05 11:44:44;;;;;;;0.50;0.50;;;;;;;13.18;43.03;99860.22;5050878;28;20231;-79
2021/11/05 11:47:14;;;;;;;0.70;0.70;;;;;;;13.13;43.84;99860.94;5066600;28;20265;-79
2021/11/05 11:49:46;;;;;;;0.97;0.53;;;;;;;13.25;42.91;99855.56;5052184;28;20289;-79
2021/11/05 11:52:19;;;;;;;0.77;0.63;;;;;;;13.39;43.76;99862.38;5034385;28;20241;-78
2021/11/05 11:54:58;;;;;;;1.33;0.60;;;;;;;13.37;42.76;99874.44;5068816;28;20229;-79
2021/11/05 11:57:32;;;;;;;1.57;0.70;;;;;;;13.47;41.77;99867.44;5072052;23;20217;-79